Time;durP1;ratioP1;P1;durP2;ratioP2;P2;SDS_P1;SDS_P2;PMS_P1;PMS_P2;Temp;Humidity;BMP_temperature;BMP_pressure;BME280_temperature;BME280_humidity;BME280_pressure;Samples;Min_cycle;Max_cycle;Signal;HPM_P1;HPM_P2
2023/01/09 06:06:05;;;;;;;4.28;1.23;;;7.60;99.90;;;;;;5796214;23;20040;-77
2023/01/09 06:08:32;;;;;;;2.10;1.10;;;7.60;99.90;;;;;;4931290;29;20131;-76
2023/01/09 06:10:58;;;;;;;4.47;0.90;;;7.50;99.90;;;;;;4928929;29;20055;-77
2023/01/09 06:13:25;;;;;;;6.15;1.05;;;7.50;99.90;;;;;;4933130;29;20059;-77
2023/01/09 06:15:52;;;;;;;4.53;0.70;;;7.40;99.90;;;;;;4909250;29;20510;-76
2023/01/09 06:18:18;;;;;;;3.55;0.80;;;7.30;99.90;;;;;;4907323;29;20044;-78
2023/01/09 06:20:45;;;;;;;2.03;0.75;;;7.30;99.90;;;;;;4915277;29;20080;-77
2023/01/09 06:23:13;;;;;;;5.03;0.93;;;7.20;99.90;;;;;;4914142;29;20060;-77
2023/01/09 06:25:40;;;;;;;4.93;1.10;;;7.10;99.90;;;;;;4905594;29;20059;-76
2023/01/09 06:28:06;;;;;;;4.75;0.70;;;7.10;99.90;;;;;;4903893;29;20049;-77
2023/01/09 06:30:33;;;;;;;2.67;0.80;;;7.10;99.90;;;;;;4909676;29;20052;-76
2023/01/09 06:33:00;;;;;;;3.08;0.85;;;7.10;99.90;;;;;;4910778;29;20048;-77
2023/01/09 06:35:27;;;;;;;3.15;0.68;;;7.00;99.90;;;;;;4910934;29;20053;-76
2023/01/09 06:37:54;;;;;;;4.43;1.30;;;7.00;99.90;;;;;;4908557;29;20056;-77
2023/01/09 06:40:21;;;;;;;4.88;0.80;;;7.00;99.90;;;;;;4915099;29;20417;-76
2023/01/09 06:42:48;;;;;;;3.92;0.80;;;6.90;99.90;;;;;;4913928;29;20143;-77
2023/01/09 06:45:16;;;;;;;2.83;0.70;;;7.00;99.90;;;;;;4906796;29;20053;-77
2023/01/09 06:47:42;;;;;;;1.80;0.80;;;7.00;99.90;;;;;;4915519;29;20080;-77
2023/01/09 06:50:10;;;;;;;5.25;0.90;;;7.10;99.90;;;;;;4909547;29;20049;-77
2023/01/09 06:52:37;;;;;;;4.97;1.00;;;7.10;99.90;;;;;;4906141;29;20044;-77
2023/01/09 06:55:04;;;;;;;4.57;0.77;;;7.10;99.90;;;;;;4907995;29;20577;-77
2023/01/09 06:57:31;;;;;;;3.08;0.68;;;7.10;99.90;;;;;;4917156;29;20502;-77
2023/01/09 06:59:57;;;;;;;2.20;0.65;;;7.10;99.90;;;;;;4907690;29;20423;-77
2023/01/09 07:02:24;;;;;;;3.00;0.68;;;7.10;99.90;;;;;;4913459;29;20424;-76
2023/01/09 07:04:51;;;;;;;4.60;0.73;;;7.00;99.90;;;;;;4906140;29;20057;-77
2023/01/09 07:07:18;;;;;;;3.42;1.00;;;7.10;99.90;;;;;;4906111;29;20048;-76
2023/01/09 07:09:45;;;;;;;2.83;0.73;;;7.00;99.90;;;;;;4904611;29;20510;-77
2023/01/09 07:12:13;;;;;;;5.18;1.25;;;7.00;99.90;;;;;;4917392;29;20058;-77
2023/01/09 07:14:40;;;;;;;6.68;1.88;;;7.00;99.90;;;;;;4915555;29;20058;-77
2023/01/09 07:17:08;;;;;;;3.67;0.90;;;6.90;99.90;;;;;;4913907;29;20144;-77
2023/01/09 07:19:35;;;;;;;4.72;0.80;;;7.00;99.90;;;;;;4911876;29;20463;-75
2023/01/09 07:22:01;;;;;;;6.57;1.15;;;7.00;99.90;;;;;;4912063;29;20048;-76
2023/01/09 07:24:28;;;;;;;6.13;0.85;;;7.00;99.90;;;;;;4915030;29;20060;-77
2023/01/09 07:26:55;;;;;;;5.80;1.10;;;7.00;99.90;;;;;;4907728;29;20058;-78
2023/01/09 07:29:21;;;;;;;5.82;1.00;;;7.00;99.90;;;;;;4909454;29;20498;-78
2023/01/09 07:31:48;;;;;;;9.35;1.20;;;7.10;99.90;;;;;;4910685;29;20425;-77
2023/01/09 07:34:14;;;;;;;3.67;0.85;;;7.10;99.90;;;;;;4908343;29;20499;-77
2023/01/09 07:36:45;;;;;;;4.90;1.33;;;7.10;99.90;;;;;;4900381;29;20418;-77
2023/01/09 07:39:12;;;;;;;;;;;7.10;99.90;;;;;;4911715;29;20059;-77
2023/01/09 07:41:39;;;;;;;6.28;1.40;;;7.10;99.90;;;;;;4904417;29;20496;-77
2023/01/09 07:44:06;;;;;;;4.93;1.15;;;7.10;99.90;;;;;;4903399;29;20053;-77
2023/01/09 07:46:36;;;;;;;5.03;1.30;;;7.10;99.90;;;;;;4907942;29;20051;-77
2023/01/09 07:49:03;;;;;;;6.30;1.38;;;7.10;99.90;;;;;;4909467;29;20074;-77
2023/01/09 07:51:30;;;;;;;6.70;1.27;;;7.00;99.90;;;;;;4904682;29;20040;-78
2023/01/09 07:53:56;;;;;;;2.72;1.00;;;7.00;99.90;;;;;;4906460;29;20135;-77
2023/01/09 07:56:23;;;;;;;4.53;1.23;;;7.00;99.90;;;;;;4911339;29;20537;-77
2023/01/09 07:58:50;;;;;;;7.47;1.55;;;7.00;99.90;;;;;;4906256;29;20064;-77
2023/01/09 08:01:16;;;;;;;6.60;0.88;;;7.00;99.90;;;;;;4899216;29;20055;-78
2023/01/09 08:03:43;;;;;;;6.80;1.30;;;7.00;99.90;;;;;;4910211;29;20078;-77
2023/01/09 08:06:10;;;;;;;6.93;1.48;;;7.00;99.90;;;;;;4903500;29;20067;-77
2023/01/09 08:08:36;;;;;;;4.97;1.30;;;7.00;99.90;;;;;;4901192;29;20060;-77
2023/01/09 08:11:03;;;;;;;4.47;0.93;;;7.00;99.90;;;;;;4968809;23;20055;-80
2023/01/09 08:13:30;;;;;;;7.45;1.15;;;7.00;99.90;;;;;;4964684;28;20040;-80
2023/01/09 08:15:57;;;;;;;3.60;1.30;;;7.00;99.90;;;;;;4965773;28;20115;-81
2023/01/09 08:18:23;;;;;;;6.50;1.52;;;7.00;99.90;;;;;;4966124;28;20132;-79
2023/01/09 08:20:50;;;;;;;6.60;1.20;;;7.00;99.90;;;;;;4964059;29;20055;-81
2023/01/09 08:23:17;;;;;;;6.07;1.15;;;7.00;99.90;;;;;;4964194;29;20061;-81
2023/01/09 08:25:44;;;;;;;8.70;1.38;;;7.00;99.90;;;;;;4965393;28;20059;-80
2023/01/09 08:28:11;;;;;;;3.92;0.95;;;7.10;99.90;;;;;;4962176;29;20062;-81
2023/01/09 08:30:38;;;;;;;4.35;1.08;;;7.10;99.90;;;;;;4961860;29;20055;-81
2023/01/09 08:33:04;;;;;;;11.50;1.15;;;7.00;99.90;;;;;;4968390;28;20047;-80
2023/01/09 08:35:31;;;;;;;6.93;1.42;;;7.10;99.90;;;;;;4966499;28;20051;-81
2023/01/09 08:37:58;;;;;;;7.07;1.45;;;7.10;99.90;;;;;;4966638;29;20506;-81
2023/01/09 08:40:24;;;;;;;7.05;1.25;;;7.10;99.90;;;;;;4966649;28;20055;-81
2023/01/09 08:48:22;;;;;;;8.38;1.27;;;7.10;99.90;;;;;;4964762;29;20203;-81
2023/01/09 08:50:49;;;;;;;3.85;1.20;;;7.10;99.90;;;;;;4964925;28;20043;-81
2023/01/09 08:53:16;;;;;;;7.45;1.48;;;7.20;99.90;;;;;;4965561;29;20107;-80
2023/01/09 08:55:43;;;;;;;3.83;1.10;;;7.20;99.90;;;;;;4965684;28;20051;-81
2023/01/09 08:58:09;;;;;;;9.50;1.58;;;7.30;99.90;;;;;;4966450;28;20086;-81
2023/01/09 09:00:36;;;;;;;9.63;1.48;;;7.40;99.90;;;;;;4980029;28;20065;-81
2023/01/09 09:03:03;;;;;;;6.63;1.20;;;7.50;99.90;;;;;;4967775;29;20082;-82
2023/01/09 09:05:30;;;;;;;8.80;1.15;;;7.60;99.90;;;;;;4964663;28;20055;-81
2023/01/09 09:07:58;;;;;;;5.72;1.00;;;7.60;99.90;;;;;;4967601;28;20047;-81
2023/01/09 09:10:27;;;;;;;6.38;1.40;;;7.70;99.90;;;;;;4953497;29;20054;-80
2023/01/09 09:12:55;;;;;;;4.55;1.13;;;7.70;99.90;;;;;;4965439;29;20500;-81
2023/01/09 09:15:24;;;;;;;3.50;1.00;;;7.80;99.90;;;;;;4966636;28;20062;-80
2023/01/09 09:17:53;;;;;;;7.00;1.50;;;7.80;99.90;;;;;;4966707;29;20058;-80
2023/01/09 09:20:21;;;;;;;5.30;1.13;;;7.90;99.90;;;;;;4967371;28;20107;-80
2023/01/09 09:22:48;;;;;;;5.03;1.00;;;7.90;99.90;;;;;;4964742;28;20046;-81
2023/01/09 09:25:16;;;;;;;7.22;1.20;;;8.00;99.90;;;;;;4964487;29;20114;-81
2023/01/09 09:27:43;;;;;;;4.90;1.63;;;8.00;99.90;;;;;;4965325;28;20071;-81
2023/01/09 09:30:12;;;;;;;4.28;1.00;;;8.10;99.90;;;;;;4964367;29;20480;-81
2023/01/09 09:32:39;;;;;;;7.05;1.40;;;8.10;99.90;;;;;;4963459;28;20077;-81
2023/01/09 09:35:06;;;;;;;6.95;1.40;;;8.20;99.90;;;;;;4965584;29;20055;-81
2023/01/09 09:37:34;;;;;;;5.72;1.98;;;8.20;99.90;;;;;;4958903;28;20054;-80
2023/01/09 09:40:00;;;;;;;5.32;1.27;;;8.20;99.90;;;;;;4965530;28;20059;-80
2023/01/09 09:46:07;;;;;;;8.00;1.67;;;8.30;99.90;;;;;;4956679;29;20074;-80
2023/01/09 09:48:44;;;;;;;5.97;1.15;;;8.40;99.90;;;;;;4956407;29;20447;-81
2023/01/09 09:51:41;;;;;;;5.68;1.20;;;8.40;99.90;;;;;;4957533;29;20066;-81
2023/01/09 09:54:13;;;;;;;9.73;2.30;;;8.40;99.90;;;;;;4958028;29;20082;-84
2023/01/09 09:56:51;;;;;;;9.93;1.58;;;8.50;99.90;;;;;;4957031;29;20483;-80
2023/01/09 09:59:22;;;;;;;8.00;1.67;;;8.50;99.90;;;;;;4957630;29;20062;-80
2023/01/09 10:02:04;;;;;;;5.15;0.77;;;8.50;99.90;;;;;;4955302;28;20443;-82
2023/01/09 10:04:33;;;;;;;7.43;1.00;;;8.60;99.90;;;;;;4958628;29;20087;-81
2023/01/09 10:07:08;;;;;;;5.18;1.08;;;8.60;99.90;;;;;;4961132;29;20431;-82
2023/01/09 10:09:44;;;;;;;3.83;1.20;;;8.60;99.90;;;;;;4954772;29;20082;-81
2023/01/09 10:12:29;;;;;;;6.28;1.50;;;8.60;99.90;;;;;;4962743;29;20102;-82
2023/01/09 10:15:14;;;;;;;6.13;1.30;;;8.60;99.90;;;;;;4961496;29;20059;-81
2023/01/09 10:18:08;;;;;;;6.30;1.30;;;8.60;99.90;;;;;;4960961;28;20065;-82
2023/01/09 10:20:56;;;;;;;8.43;1.63;;;8.60;99.90;;;;;;4953290;28;20062;-81
2023/01/09 10:23:26;;;;;;;7.50;1.80;;;8.60;99.90;;;;;;4953653;29;20178;-82
2023/01/09 10:26:01;;;;;;;6.07;1.50;;;8.60;99.90;;;;;;4957229;28;20114;-82
2023/01/09 10:29:05;;;;;;;7.88;1.33;;;8.70;99.90;;;;;;4960852;28;20051;-83
2023/01/09 10:31:45;;;;;;;6.80;1.52;;;8.70;99.90;;;;;;4952172;29;20130;-81
2023/01/09 10:35:12;;;;;;;3.90;1.42;;;8.70;99.90;;;;;;4975861;28;20052;-81
2023/01/09 10:37:44;;;;;;;4.43;1.20;;;8.70;99.90;;;;;;4871888;29;20061;-82
2023/01/09 10:40:41;;;;;;;5.53;1.25;;;8.60;99.90;;;;;;4941664;29;20064;-82
2023/01/09 10:43:14;;;;;;;4.22;0.77;;;8.60;99.90;;;;;;4960709;29;20123;-82
2023/01/09 10:45:49;;;;;;;2.20;0.88;;;8.50;99.90;;;;;;4960448;29;20047;-81
2023/01/09 10:48:16;;;;;;;4.55;0.80;;;8.50;99.90;;;;;;4960702;28;20091;-82
2023/01/09 10:50:44;;;;;;;3.25;1.08;;;8.50;99.90;;;;;;4962226;29;20492;-82
2023/01/09 10:53:40;;;;;;;2.75;0.70;;;8.40;99.90;;;;;;4962961;28;20150;-82
2023/01/09 10:56:32;;;;;;;2.40;0.63;;;8.40;99.90;;;;;;4960193;29;20050;-82
2023/01/09 10:58:59;;;;;;;2.80;0.80;;;8.30;99.90;;;;;;4958612;29;20518;-82
2023/01/09 11:01:29;;;;;;;1.92;0.68;;;8.30;99.90;;;;;;4961641;28;20090;-82
2023/01/09 11:04:00;;;;;;;1.85;0.90;;;8.30;99.90;;;;;;4957793;28;20158;-81
2023/01/09 11:07:14;;;;;;;5.18;0.90;;;8.30;99.90;;;;;;4962464;29;20055;-82
2023/01/09 11:10:00;;;;;;;3.80;0.88;;;8.40;99.90;;;;;;4881673;29;20053;-82
2023/01/09 11:12:32;;;;;;;3.03;1.08;;;8.50;99.90;;;;;;4883885;29;20060;-82
2023/01/09 11:15:18;;;;;;;2.60;0.80;;;8.50;99.90;;;;;;4937933;28;20055;-82
2023/01/09 11:17:46;;;;;;;3.25;0.60;;;8.50;99.90;;;;;;4976359;28;20054;-82
2023/01/09 11:20:24;;;;;;;2.15;0.70;;;8.50;99.90;;;;;;4959260;28;20493;-81
2023/01/09 11:22:56;;;;;;;4.97;1.17;;;8.50;99.90;;;;;;4958932;28;20143;-82
2023/01/09 11:25:26;;;;;;;4.18;0.90;;;8.50;99.90;;;;;;4960367;28;20770;-81
2023/01/09 11:28:02;;;;;;;1.75;0.75;;;8.50;99.90;;;;;;4973279;28;20060;-80
2023/01/09 11:30:32;;;;;;;2.90;0.80;;;8.50;99.90;;;;;;4957971;28;20075;-81
2023/01/09 11:32:59;;;;;;;5.15;0.90;;;8.40;99.90;;;;;;4960267;28;20048;-81
2023/01/09 11:35:33;;;;;;;2.63;0.80;;;8.40;99.90;;;;;;4957649;28;20043;-81
2023/01/09 11:38:05;;;;;;;0.98;0.65;;;8.40;99.90;;;;;;4953706;28;20048;-82
2023/01/09 11:40:45;;;;;;;1.45;0.63;;;8.30;99.90;;;;;;4954083;28;20058;-81
2023/01/09 11:43:31;;;;;;;3.90;1.05;;;8.30;99.90;;;;;;4954929;28;20397;-81
2023/01/09 11:46:01;;;;;;;3.40;1.35;;;8.30;99.90;;;;;;4957597;28;20110;-82
2023/01/09 11:48:31;;;;;;;3.45;1.30;;;8.30;99.90;;;;;;4955326;28;20078;-80
2023/01/09 11:50:59;;;;;;;2.75;1.33;;;8.30;99.90;;;;;;4959108;28;20054;-81
2023/01/09 11:53:27;;;;;;;4.18;1.30;;;8.30;99.90;;;;;;4960479;28;20047;-82
2023/01/09 11:55:59;;;;;;;3.38;1.00;;;8.40;99.90;;;;;;4957501;29;20448;-80
2023/01/09 11:58:31;;;;;;;3.20;1.38;;;8.30;99.90;;;;;;4966257;28;20058;-81
2023/01/09 12:01:06;;;;;;;5.22;1.48;;;8.40;99.90;;;;;;4971375;28;20070;-82
2023/01/09 12:03:48;;;;;;;4.70;0.95;;;8.40;99.90;;;;;;4971201;29;20123;-82
2023/01/09 12:06:42;;;;;;;6.28;1.00;;;8.40;99.90;;;;;;4970327;29;20094;-81
2023/01/09 12:09:24;;;;;;;4.65;1.58;;;8.40;99.90;;;;;;4966789;29;20051;-80
2023/01/09 12:12:03;;;;;;;5.50;1.40;;;8.40;99.90;;;;;;4967917;29;20051;-81
2023/01/09 12:15:07;;;;;;;5.50;1.52;;;8.40;99.90;;;;;;4963733;29;20039;-78
2023/01/09 12:17:46;;;;;;;6.00;1.27;;;8.40;99.90;;;;;;4970113;29;20048;-81
2023/01/09 12:20:24;;;;;;;9.25;1.92;;;8.40;99.90;;;;;;4971004;28;20063;-81
2023/01/09 12:23:10;;;;;;;7.32;2.05;;;8.50;99.90;;;;;;4958386;29;20057;-81
2023/01/09 12:26:30;;;;;;;7.18;1.50;;;8.50;99.90;;;;;;4958700;29;20114;-80
2023/01/09 12:29:11;;;;;;;5.50;1.23;;;8.60;99.90;;;;;;4936326;29;20054;-82
2023/01/09 12:31:57;;;;;;;4.93;1.40;;;8.70;99.90;;;;;;4922670;29;20473;-80
2023/01/09 12:34:45;;;;;;;5.07;1.65;;;8.70;99.90;;;;;;4962266;28;20054;-83
2023/01/09 12:37:35;;;;;;;2.60;1.00;;;8.70;99.90;;;;;;4969010;29;20109;-81
2023/01/09 12:40:15;;;;;;;6.32;1.40;;;8.80;99.90;;;;;;4968853;29;20055;-81
2023/01/09 12:42:59;;;;;;;5.85;1.17;;;8.70;99.90;;;;;;4966662;29;20063;-81
2023/01/09 12:45:38;;;;;;;4.97;1.30;;;8.80;99.90;;;;;;4969744;28;20066;-81
2023/01/09 12:48:20;;;;;;;9.23;1.23;;;8.80;99.90;;;;;;4967086;29;20105;-81
2023/01/09 12:51:07;;;;;;;8.38;1.58;;;8.80;99.90;;;;;;4966252;28;20055;-80
2023/01/09 12:53:57;;;;;;;6.55;1.25;;;8.90;99.90;;;;;;4958599;29;20398;-81
2023/01/09 12:56:45;;;;;;;7.00;1.58;;;8.80;99.90;;;;;;4956073;29;20069;-81
2023/01/09 12:59:46;;;;;;;5.03;1.45;;;8.70;99.90;;;;;;4959320;29;20062;-82
2023/01/09 13:02:22;;;;;;;6.82;2.03;;;8.70;99.90;;;;;;4955309;29;20083;-82
2023/01/09 13:04:53;;;;;;;7.15;2.08;;;8.60;99.90;;;;;;4957860;29;20777;-81
2023/01/09 13:07:25;;;;;;;5.65;1.27;;;8.60;99.90;;;;;;4956623;29;20053;-81
2023/01/09 13:09:57;;;;;;;5.82;1.17;;;8.60;99.90;;;;;;4960059;28;20656;-81
2023/01/09 13:12:26;;;;;;;4.90;1.98;;;8.60;99.90;;;;;;4961685;28;20134;-82
2023/01/09 13:15:00;;;;;;;6.65;1.75;;;8.60;99.90;;;;;;4958853;29;20047;-81
2023/01/09 13:17:47;;;;;;;8.45;2.20;;;8.60;99.90;;;;;;4962669;28;20124;-81
2023/01/09 13:20:21;;;;;;;7.35;1.70;;;8.70;99.90;;;;;;4963459;29;20071;-82
2023/01/09 13:22:49;;;;;;;9.55;2.92;;;8.70;99.90;;;;;;4969158;29;20074;-81
2023/01/09 13:25:38;;;;;;;5.43;1.60;;;8.70;99.90;;;;;;4959534;29;20054;-81
2023/01/09 13:28:16;;;;;;;4.07;1.33;;;8.70;99.90;;;;;;4965455;29;20047;-82
2023/01/09 13:31:01;;;;;;;7.38;1.58;;;8.70;99.90;;;;;;4970380;29;20075;-81
2023/01/09 13:33:30;;;;;;;4.65;1.70;;;8.70;99.90;;;;;;4959494;28;20700;-81
2023/01/09 13:35:59;;;;;;;7.20;2.65;;;8.70;99.90;;;;;;4956841;28;20043;-82
2023/01/09 13:38:28;;;;;;;9.25;2.10;;;8.60;99.90;;;;;;4959148;28;20086;-81
2023/01/09 13:44:17;;;;;;;5.47;2.05;;;8.40;99.90;;;;;;4956402;29;20093;-82
2023/01/09 13:47:04;;;;;;;4.03;1.30;;;8.30;99.90;;;;;;4971783;28;20070;-81
2023/01/09 13:49:40;;;;;;;7.47;1.45;;;8.10;99.90;;;;;;4957652;29;20058;-81
2023/01/09 13:52:29;;;;;;;7.15;1.30;;;8.00;99.90;;;;;;4957931;28;20051;-79
2023/01/09 13:54:58;;;;;;;8.00;1.30;;;7.90;99.90;;;;;;4957227;28;20126;-81
2023/01/09 13:57:35;;;;;;;6.70;1.20;;;7.80;99.90;;;;;;4956877;29;20047;-81
2023/01/09 14:00:11;;;;;;;5.10;1.17;;;7.70;99.90;;;;;;4957113;28;20055;-80
2023/01/09 14:02:37;;;;;;;5.68;1.30;;;7.70;99.90;;;;;;4958384;28;20134;-81
2023/01/09 14:05:15;;;;;;;8.50;1.55;;;7.60;99.90;;;;;;4961935;28;20090;-81
2023/01/09 14:07:44;;;;;;;8.38;1.52;;;7.70;99.90;;;;;;4961404;28;20054;-81
2023/01/09 14:10:31;;;;;;;7.82;2.95;;;7.70;99.90;;;;;;4957307;29;20419;-81
2023/01/09 14:12:58;;;;;;;7.70;1.65;;;7.60;99.90;;;;;;4983732;23;20090;-78
2023/01/09 14:15:24;;;;;;;4.85;1.25;;;7.60;99.90;;;;;;4963208;29;20057;-77
2023/01/09 14:18:01;;;;;;;4.95;1.65;;;7.60;99.90;;;;;;4960950;29;20115;-78
2023/01/09 14:20:40;;;;;;;8.85;1.05;;;7.60;99.90;;;;;;4963078;29;20059;-76
2023/01/09 14:23:07;;;;;;;3.47;1.30;;;7.60;99.90;;;;;;4962913;28;20074;-78
2023/01/09 14:25:55;;;;;;;2.70;1.40;;;7.60;99.90;;;;;;4964178;28;20066;-77
2023/01/09 14:28:26;;;;;;;7.20;1.73;;;7.70;99.90;;;;;;4963211;29;20137;-78
2023/01/09 14:30:53;;;;;;;4.18;1.00;;;7.70;99.90;;;;;;4963839;28;20079;-77
2023/01/09 14:33:24;;;;;;;3.42;0.77;;;7.70;99.90;;;;;;4965551;28;20058;-77
2023/01/09 14:36:28;;;;;;;1.60;0.80;;;7.70;99.90;;;;;;4963561;28;20066;-77
2023/01/09 14:39:04;;;;;;;3.20;0.70;;;7.70;99.90;;;;;;4970448;28;20134;-78
2023/01/09 14:44:30;;;;;;;1.52;0.85;;;7.70;99.90;;;;;;4966190;29;20063;-78
2023/01/09 14:47:26;;;;;;;2.67;0.90;;;7.70;99.90;;;;;;4962294;28;20551;-78
2023/01/09 14:50:22;;;;;;;1.38;0.60;;;7.70;99.90;;;;;;4951215;28;20050;-77
2023/01/09 14:52:54;;;;;;;2.08;0.80;;;7.60;99.90;;;;;;4961206;29;20051;-78
2023/01/09 14:55:30;;;;;;;3.25;0.85;;;7.50;99.90;;;;;;4963060;28;20058;-78
2023/01/09 14:58:22;;;;;;;3.92;0.80;;;7.50;99.90;;;;;;4959099;29;20049;-78
2023/01/09 15:01:03;;;;;;;3.53;0.80;;;7.60;99.90;;;;;;4963543;28;20082;-78
2023/01/09 15:03:41;;;;;;;3.20;0.88;;;7.60;99.90;;;;;;4960738;29;20047;-78
2023/01/09 15:06:29;;;;;;;2.50;0.80;;;7.60;99.90;;;;;;4962898;29;20074;-78
2023/01/09 15:09:27;;;;;;;5.82;1.67;;;7.50;99.90;;;;;;4960943;29;20130;-78
2023/01/09 15:12:03;;;;;;;3.05;1.10;;;7.50;99.90;;;;;;4960587;29;20047;-78
2023/01/09 15:14:32;;;;;;;2.22;0.85;;;7.50;99.90;;;;;;4960532;28;20051;-77
2023/01/09 15:17:00;;;;;;;3.72;1.10;;;7.50;99.90;;;;;;4960684;28;20055;-78
2023/01/09 15:19:28;;;;;;;3.17;1.25;;;7.50;99.90;;;;;;4959037;29;20134;-78
2023/01/09 15:22:05;;;;;;;1.80;0.90;;;7.60;99.90;;;;;;4961274;28;20444;-78
2023/01/09 15:24:33;;;;;;;6.28;1.52;;;7.50;99.90;;;;;;4947071;29;20143;-78
2023/01/09 15:27:20;;;;;;;2.08;1.00;;;7.50;99.90;;;;;;4961078;28;20404;-78
2023/01/09 15:29:48;;;;;;;4.82;1.10;;;7.50;99.90;;;;;;4961161;29;20110;-78
2023/01/09 15:32:26;;;;;;;4.93;1.00;;;7.60;99.90;;;;;;4960108;29;20054;-78
2023/01/09 15:34:54;;;;;;;3.92;1.33;;;7.50;99.90;;;;;;4960544;29;20531;-78
2023/01/09 15:37:27;;;;;;;6.80;1.52;;;7.50;99.90;;;;;;4958749;29;20051;-78
2023/01/09 15:39:55;;;;;;;4.05;1.50;;;7.50;99.90;;;;;;4961730;28;20051;-78
2023/01/09 15:45:31;;;;;;;2.33;1.20;;;7.30;99.90;;;;;;4960708;29;20146;-78
2023/01/09 15:48:31;;;;;;;2.95;1.10;;;7.30;99.90;;;;;;4961756;28;20062;-78
2023/01/09 15:51:05;;;;;;;4.07;1.13;;;7.30;99.90;;;;;;4959035;29;20078;-78
2023/01/09 15:53:32;;;;;;;4.85;1.60;;;7.30;99.90;;;;;;4972795;28;20043;-77
2023/01/09 15:56:11;;;;;;;5.82;1.60;;;7.30;99.90;;;;;;4978677;28;20094;-77
2023/01/09 15:58:45;;;;;;;7.03;1.60;;;7.30;99.90;;;;;;4980039;28;20058;-77
2023/01/09 16:01:34;;;;;;;4.68;1.40;;;7.30;99.90;;;;;;4980259;28;20094;-77
2023/01/09 16:04:06;;;;;;;5.82;1.80;;;7.20;99.90;;;;;;4976135;28;20043;-78
2023/01/09 16:06:48;;;;;;;3.05;1.60;;;7.20;99.90;;;;;;4960408;29;20051;-78
2023/01/09 16:09:24;;;;;;;7.38;1.73;;;7.10;99.90;;;;;;4959275;28;20047;-78
2023/01/09 16:11:55;;;;;;;3.63;1.60;;;7.20;99.90;;;;;;4956723;29;20051;-77
2023/01/09 16:14:29;;;;;;;4.70;1.67;;;7.20;99.90;;;;;;4960840;28;20104;-78
2023/01/09 16:17:02;;;;;;;10.38;1.60;;;7.20;99.90;;;;;;4957073;29;20089;-78
2023/01/09 16:19:42;;;;;;;5.90;1.42;;;7.20;99.90;;;;;;4959562;28;20057;-78
2023/01/09 16:22:27;;;;;;;6.68;2.10;;;7.20;99.90;;;;;;4954464;29;20142;-78
2023/01/09 16:24:58;;;;;;;6.15;2.95;;;7.20;99.90;;;;;;4957934;28;20106;-78
2023/01/09 16:27:32;;;;;;;11.40;3.30;;;7.20;99.90;;;;;;4959072;28;20065;-78
2023/01/09 16:30:00;;;;;;;7.40;3.38;;;7.30;99.90;;;;;;4959099;28;20066;-78
2023/01/09 16:32:33;;;;;;;6.32;2.03;;;7.30;99.90;;;;;;4958694;29;20051;-78
2023/01/09 16:35:04;;;;;;;5.70;1.65;;;7.30;99.90;;;;;;4952389;29;20047;-77
2023/01/09 16:37:32;;;;;;;4.05;1.30;;;7.30;99.90;;;;;;4957685;29;20565;-78
2023/01/09 16:40:17;;;;;;;6.82;1.83;;;7.30;99.90;;;;;;4958035;29;20110;-77
2023/01/09 16:42:59;;;;;;;4.07;1.40;;;7.30;99.90;;;;;;4958385;29;20473;-78
2023/01/09 16:45:34;;;;;;;4.63;1.58;;;7.30;99.90;;;;;;4955912;29;20122;-78
2023/01/09 16:48:22;;;;;;;4.30;1.20;;;7.30;99.90;;;;;;4973480;28;20047;-78
2023/01/09 16:50:49;;;;;;;12.10;1.58;;;7.30;99.90;;;;;;4955468;28;20422;-77
2023/01/09 16:53:22;;;;;;;5.70;1.52;;;7.30;99.90;;;;;;4954608;28;20134;-77
2023/01/09 16:55:51;;;;;;;5.55;1.40;;;7.30;99.90;;;;;;4949618;29;20036;-77
2023/01/09 16:58:25;;;;;;;4.28;1.95;;;7.30;99.90;;;;;;4955796;28;20047;-78
2023/01/09 17:00:52;;;;;;;8.20;2.67;;;7.30;99.90;;;;;;4952593;29;20058;-77
2023/01/09 17:03:19;;;;;;;2.70;1.38;;;7.30;99.90;;;;;;4954103;28;20055;-78
2023/01/09 17:05:51;;;;;;;5.70;1.52;;;7.30;99.90;;;;;;4951933;28;20057;-77
2023/01/09 17:08:33;;;;;;;6.60;1.70;;;7.30;99.90;;;;;;4954504;28;20073;-76
2023/01/09 17:11:00;;;;;;;5.90;1.88;;;7.20;99.90;;;;;;4952497;29;20047;-77
2023/01/09 17:13:27;;;;;;;6.72;1.25;;;7.30;99.90;;;;;;4953360;29;20062;-77
2023/01/09 17:15:57;;;;;;;4.43;2.15;;;7.30;99.90;;;;;;4953172;28;20472;-77
2023/01/09 17:18:26;;;;;;;4.75;1.40;;;7.30;99.90;;;;;;4955470;28;20043;-76
2023/01/09 17:20:57;;;;;;;7.18;1.55;;;7.40;99.90;;;;;;4955969;28;20051;-79
2023/01/09 17:23:27;;;;;;;5.53;1.95;;;7.40;99.90;;;;;;4953931;28;20182;-77
2023/01/09 17:28:50;;;;;;;5.60;1.63;;;7.30;99.90;;;;;;4939048;29;20055;-77
2023/01/09 17:31:17;;;;;;;7.57;1.63;;;7.30;99.90;;;;;;4952152;28;20051;-77
2023/01/09 17:33:44;;;;;;;1.52;1.15;;;7.30;99.90;;;;;;4953885;29;20556;-77
2023/01/09 17:36:28;;;;;;;6.25;2.13;;;7.30;99.90;;;;;;4953072;28;20047;-77
2023/01/09 17:38:54;;;;;;;6.28;2.13;;;7.40;99.90;;;;;;4954621;29;20047;-77
2023/01/09 17:41:23;;;;;;;5.85;2.20;;;7.40;99.90;;;;;;4957876;28;20413;-76
2023/01/09 17:43:50;;;;;;;5.95;2.22;;;7.40;99.90;;;;;;4956795;28;20070;-77
2023/01/09 17:46:30;;;;;;;7.90;2.42;;;7.30;99.90;;;;;;4954737;28;20488;-77
2023/01/09 17:48:57;;;;;;;5.97;2.30;;;7.30;99.90;;;;;;4955667;29;20063;-77
2023/01/09 17:51:24;;;;;;;10.18;3.67;;;7.30;99.90;;;;;;4953101;28;20050;-77
2023/01/09 17:53:51;;;;;;;15.98;5.63;;;7.30;99.90;;;;;;4968456;28;20528;-78
2023/01/09 17:56:20;;;;;;;13.48;5.05;;;7.30;99.90;;;;;;4956586;28;20051;-77
2023/01/09 17:58:47;;;;;;;13.35;4.82;;;7.30;99.90;;;;;;4956650;28;20051;-77
2023/01/09 18:01:16;;;;;;;9.70;4.22;;;7.30;99.90;;;;;;4956527;28;20051;-77
2023/01/09 18:03:45;;;;;;;5.85;2.05;;;7.30;99.90;;;;;;4955513;29;20560;-78
2023/01/09 18:06:13;;;;;;;5.53;1.77;;;7.40;99.90;;;;;;4954584;29;20047;-77
2023/01/09 18:08:40;;;;;;;4.90;1.13;;;7.40;99.90;;;;;;4956061;29;20063;-77
2023/01/09 18:11:16;;;;;;;6.65;1.30;;;7.40;99.90;;;;;;4953580;29;20047;-77
2023/01/09 18:13:48;;;;;;;6.15;1.80;;;7.30;99.90;;;;;;4956596;28;20416;-77
2023/01/09 18:16:22;;;;;;;5.50;1.70;;;7.30;99.90;;;;;;4954052;29;20139;-77
2023/01/09 18:18:50;;;;;;;9.10;2.10;;;7.30;99.90;;;;;;4964221;28;20059;-77
2023/01/09 18:21:20;;;;;;;8.23;1.65;;;7.20;99.90;;;;;;4955307;29;20527;-77
2023/01/09 18:23:47;;;;;;;2.63;1.63;;;7.20;99.90;;;;;;4956487;28;20521;-77
2023/01/09 18:26:19;;;;;;;5.65;2.08;;;7.20;99.90;;;;;;4952362;29;20472;-77
2023/01/09 18:28:49;;;;;;;6.47;2.15;;;7.20;99.90;;;;;;4948722;28;20584;-77
2023/01/09 18:31:20;;;;;;;6.95;1.80;;;7.20;99.90;;;;;;4953562;29;20058;-77
2023/01/09 18:33:50;;;;;;;7.95;2.30;;;7.20;99.90;;;;;;4955940;28;20051;-77
2023/01/09 18:36:19;;;;;;;8.02;2.13;;;7.10;99.90;;;;;;4956228;28;20054;-78
2023/01/09 18:38:51;;;;;;;7.10;2.72;;;7.10;99.90;;;;;;4955273;28;20053;-77
2023/01/09 18:41:20;;;;;;;5.32;2.25;;;7.10;99.90;;;;;;4956097;28;20078;-77
2023/01/09 18:43:52;;;;;;;9.48;2.78;;;7.10;99.90;;;;;;4955306;28;20059;-78
2023/01/09 18:46:23;;;;;;;3.08;1.27;;;7.10;99.90;;;;;;4954505;28;20059;-77
2023/01/09 18:48:54;;;;;;;2.38;1.15;;;7.10;99.90;;;;;;4949737;28;20635;-77
2023/01/09 18:51:23;;;;;;;7.28;1.63;;;7.10;99.90;;;;;;4954352;28;20054;-77
2023/01/09 18:53:49;;;;;;;3.03;1.10;;;7.20;99.90;;;;;;4954919;29;20055;-76
2023/01/09 18:56:18;;;;;;;7.25;1.50;;;7.20;99.90;;;;;;4954883;28;20458;-77
2023/01/09 18:58:45;;;;;;;4.10;1.20;;;7.20;99.90;;;;;;4953097;29;20098;-78
2023/01/09 19:01:13;;;;;;;4.15;1.45;;;7.20;99.90;;;;;;4950586;29;20047;-78
2023/01/09 19:03:40;;;;;;;7.80;1.60;;;7.20;99.90;;;;;;4953874;28;20055;-77
2023/01/09 19:06:07;;;;;;;6.20;1.70;;;7.10;99.90;;;;;;4955213;28;20047;-77
2023/01/09 19:08:34;;;;;;;5.97;2.17;;;7.10;99.90;;;;;;4954686;29;20055;-78
2023/01/09 19:11:01;;;;;;;3.88;1.63;;;7.10;99.90;;;;;;4954765;28;20423;-77
2023/01/09 19:13:31;;;;;;;5.75;1.65;;;7.10;99.90;;;;;;4952162;29;20050;-77
2023/01/09 19:15:59;;;;;;;3.75;1.73;;;7.10;99.90;;;;;;4955307;28;20510;-77
2023/01/09 19:18:27;;;;;;;2.40;1.42;;;7.10;99.90;;;;;;4953786;29;20043;-77
2023/01/09 19:20:54;;;;;;;7.53;1.85;;;7.10;99.90;;;;;;4955336;28;20420;-77
2023/01/09 19:23:23;;;;;;;8.45;2.20;;;7.10;99.90;;;;;;4953907;28;20059;-77
2023/01/09 19:25:51;;;;;;;5.30;1.45;;;7.10;99.90;;;;;;4949061;29;20059;-77
2023/01/09 19:28:19;;;;;;;3.63;1.38;;;7.10;99.90;;;;;;4954049;28;20058;-77
2023/01/09 19:30:46;;;;;;;9.38;2.10;;;7.10;99.90;;;;;;4953341;28;20047;-77
2023/01/09 19:33:13;;;;;;;8.25;1.60;;;7.00;99.90;;;;;;4954026;29;20039;-77
2023/01/09 19:35:40;;;;;;;11.30;1.50;;;6.90;99.90;;;;;;4951955;29;20059;-77
2023/01/09 19:38:06;;;;;;;2.95;1.25;;;6.90;99.90;;;;;;4954129;29;20046;-77
2023/01/09 19:40:35;;;;;;;4.68;1.13;;;6.90;99.90;;;;;;4954507;29;20051;-77
2023/01/09 19:43:01;;;;;;;4.25;1.67;;;6.90;99.90;;;;;;4953239;29;20536;-77
2023/01/09 19:45:28;;;;;;;4.40;1.48;;;6.90;99.90;;;;;;4950735;29;20051;-77
2023/01/09 19:47:55;;;;;;;7.07;1.25;;;6.90;99.90;;;;;;4954417;29;20086;-77
2023/01/09 19:50:21;;;;;;;4.63;1.20;;;6.90;99.90;;;;;;4951573;29;20051;-77
2023/01/09 19:52:49;;;;;;;4.18;1.45;;;6.80;99.90;;;;;;4953129;28;20054;-77
2023/01/09 19:55:16;;;;;;;4.80;1.60;;;6.80;99.90;;;;;;4954143;28;20047;-76